createdAt,value
2022-07-26T00:00:39.716Z,4.33
2022-07-26T00:02:18.334Z,4.50
2022-07-26T00:03:52.218Z,4.63
2022-07-26T00:05:24.448Z,4.70
2022-07-26T00:06:56.819Z,4.80
2022-07-26T00:08:29.477Z,4.37
2022-07-26T00:10:01.788Z,4.83
2022-07-26T00:11:34.184Z,5.07
2022-07-26T00:13:06.907Z,4.70
2022-07-26T00:14:39.434Z,5.27
2022-07-26T00:16:14.021Z,4.83
2022-07-26T00:17:46.270Z,4.80
2022-07-26T00:19:18.508Z,4.83
2022-07-26T00:20:50.998Z,4.60
2022-07-26T00:22:34.231Z,5.07
2022-07-26T00:24:07.674Z,5.03
2022-07-26T00:25:40.311Z,5.10
2022-07-26T00:27:12.732Z,4.70
2022-07-26T00:28:45.429Z,4.10
2022-07-26T00:30:17.710Z,4.70
2022-07-26T00:31:49.949Z,4.57
2022-07-26T00:33:22.399Z,5.27
2022-07-26T00:34:54.947Z,4.93
2022-07-26T00:36:28.918Z,5.63
2022-07-26T00:38:01.099Z,5.00
2022-07-26T00:39:33.538Z,5.03
2022-07-26T00:41:07.422Z,4.90
2022-07-26T00:42:40.220Z,4.90
2022-07-26T00:44:12.474Z,6.10
2022-07-26T00:45:44.997Z,4.60
2022-07-26T00:47:17.747Z,5.00
2022-07-26T00:48:50.087Z,4.80
2022-07-26T00:50:22.559Z,5.00
2022-07-26T00:51:54.956Z,4.60
2022-07-26T00:53:27.210Z,5.70
2022-07-26T00:55:00.016Z,5.03
2022-07-26T00:56:34.947Z,5.03
2022-07-26T00:58:07.501Z,5.00
2022-07-26T00:59:40.348Z,5.47
2022-07-26T01:01:12.881Z,5.60
2022-07-26T01:02:46.171Z,5.50
2022-07-26T01:04:18.584Z,5.47
2022-07-26T01:05:50.877Z,5.50
2022-07-26T01:07:23.938Z,4.73
2022-07-26T01:08:56.438Z,5.53
2022-07-26T01:10:29.777Z,4.77
2022-07-26T01:12:01.907Z,4.83
2022-07-26T01:13:35.570Z,5.83
2022-07-26T01:15:13.959Z,7.50
2022-07-26T01:16:47.509Z,6.93
2022-07-26T01:18:19.711Z,7.53
2022-07-26T01:19:51.960Z,7.83
2022-07-26T01:21:32.393Z,5.47
2022-07-26T01:23:04.937Z,6.20
2022-07-26T01:24:37.180Z,5.60
2022-07-26T01:26:10.469Z,4.97
2022-07-26T01:27:43.963Z,5.77
2022-07-26T01:29:16.486Z,5.47
2022-07-26T01:30:49.891Z,5.07
2022-07-26T01:32:22.309Z,6.30
2022-07-26T01:33:55.565Z,5.37
2022-07-26T01:35:29.205Z,6.07
2022-07-26T01:37:01.900Z,5.30
2022-07-26T01:38:34.316Z,5.57
2022-07-26T01:40:07.771Z,5.47
2022-07-26T01:41:41.676Z,6.30
2022-07-26T01:43:14.418Z,6.23
2022-07-26T01:44:46.724Z,5.63
2022-07-26T01:46:18.937Z,6.03
2022-07-26T01:47:51.623Z,5.50
2022-07-26T01:49:23.973Z,7.27
2022-07-26T01:50:56.273Z,5.40
2022-07-26T01:52:28.594Z,4.90
2022-07-26T01:54:02.084Z,5.20
2022-07-26T01:55:36.013Z,5.67
2022-07-26T01:57:08.637Z,4.97
2022-07-26T01:58:42.069Z,4.80
2022-07-26T02:00:15.432Z,5.33
2022-07-26T02:01:47.862Z,6.87
2022-07-26T02:03:20.234Z,5.20
2022-07-26T02:05:01.971Z,5.33
2022-07-26T02:06:34.632Z,5.10
2022-07-26T02:08:06.948Z,5.00
2022-07-26T02:09:39.967Z,5.30
2022-07-26T02:11:12.531Z,4.90
2022-07-26T02:12:44.914Z,4.93
2022-07-26T02:14:25.548Z,4.70
2022-07-26T02:16:01.701Z,4.63
2022-07-26T02:17:34.124Z,19.13
2022-07-26T02:19:06.922Z,5.87
2022-07-26T02:20:39.698Z,4.83
2022-07-26T02:22:11.980Z,4.50
2022-07-26T02:23:44.196Z,5.30
2022-07-26T02:25:16.554Z,5.67
2022-07-26T02:26:48.741Z,4.90
2022-07-26T02:28:21.976Z,4.70
2022-07-26T02:29:54.105Z,5.57
2022-07-26T02:31:32.202Z,5.00
2022-07-26T02:33:05.082Z,5.50
2022-07-26T02:34:37.740Z,4.57
2022-07-26T02:36:09.904Z,4.40
2022-07-26T02:37:43.780Z,4.97
2022-07-26T02:39:17.153Z,4.93
2022-07-26T02:40:50.629Z,4.57
2022-07-26T02:42:22.928Z,5.03
2022-07-26T02:43:55.284Z,4.70
2022-07-26T02:45:28.083Z,4.40
2022-07-26T02:47:00.304Z,4.87
2022-07-26T02:48:32.814Z,5.07
2022-07-26T02:50:06.269Z,5.20
2022-07-26T02:51:38.490Z,4.37
2022-07-26T02:53:10.810Z,4.80
2022-07-26T02:54:43.244Z,5.10
2022-07-26T02:56:15.618Z,5.20
2022-07-26T02:57:48.555Z,4.50
2022-07-26T02:59:20.840Z,6.40
2022-07-26T03:00:53.203Z,5.10
2022-07-26T03:02:25.946Z,4.93
2022-07-26T03:03:58.396Z,4.90
2022-07-26T03:05:30.563Z,4.73
2022-07-26T03:07:03.071Z,4.70
2022-07-26T03:08:36.516Z,4.60
2022-07-26T03:10:09.618Z,5.43
2022-07-26T03:11:41.987Z,5.50
2022-07-26T03:13:15.391Z,5.30
2022-07-26T03:14:47.838Z,4.90
2022-07-26T03:16:21.902Z,5.50
2022-07-26T03:18:21.754Z,5.73
2022-07-26T03:21:44.157Z,5.93
2022-07-26T03:23:16.946Z,6.07
2022-07-26T03:24:49.181Z,4.73
2022-07-26T03:26:22.028Z,5.60
2022-07-26T03:27:57.200Z,5.07
2022-07-26T03:29:30.465Z,6.07
2022-07-26T03:31:03.793Z,5.37
2022-07-26T03:32:36.536Z,5.80
2022-07-26T03:34:09.235Z,4.40
2022-07-26T03:35:41.556Z,4.87
2022-07-26T03:37:14.030Z,5.13
2022-07-26T03:38:46.432Z,5.00
2022-07-26T03:40:19.976Z,4.10
2022-07-26T03:41:52.176Z,4.17
2022-07-26T03:43:24.573Z,3.83
2022-07-26T03:44:57.148Z,4.10
2022-07-26T03:46:29.446Z,4.20
2022-07-26T03:48:01.648Z,4.30
2022-07-26T03:49:34.327Z,4.22
2022-07-26T03:51:06.916Z,4.05
2022-07-26T03:52:39.316Z,4.22
2022-07-26T03:54:11.957Z,4.25
2022-07-26T03:56:02.967Z,4.20
2022-07-26T03:57:50.624Z,4.40
2022-07-26T03:59:24.219Z,4.00
2022-07-26T04:00:56.525Z,3.78
2022-07-26T04:02:28.765Z,3.85
2022-07-26T04:04:02.055Z,4.35
2022-07-26T04:05:34.268Z,4.40
2022-07-26T04:07:08.535Z,3.97
2022-07-26T04:08:41.712Z,4.20
2022-07-26T04:10:15.818Z,3.83
2022-07-26T04:11:50.668Z,4.10
2022-07-26T04:13:24.106Z,3.70
2022-07-26T04:14:57.500Z,3.55
2022-07-26T04:16:29.945Z,3.78
2022-07-26T04:18:02.083Z,4.00
2022-07-26T04:19:34.227Z,4.63
2022-07-26T04:21:11.942Z,4.00
2022-07-26T04:22:45.113Z,4.18
2022-07-26T04:24:17.324Z,4.13
2022-07-26T04:25:49.740Z,3.83
2022-07-26T04:27:21.904Z,4.35
2022-07-26T04:28:54.465Z,3.97
2022-07-26T04:30:27.344Z,4.10
2022-07-26T04:32:01.089Z,3.97
2022-07-26T04:33:33.427Z,4.28
2022-07-26T04:35:06.231Z,4.03
2022-07-26T04:36:39.032Z,3.70
2022-07-26T04:38:11.267Z,3.97
2022-07-26T04:39:43.460Z,4.00
2022-07-26T04:41:15.924Z,3.25
2022-07-26T04:42:49.370Z,4.05
2022-07-26T04:44:21.552Z,4.00
2022-07-26T04:45:53.864Z,4.10
2022-07-26T04:47:26.376Z,4.05
2022-07-26T04:48:58.658Z,4.00
2022-07-26T04:50:30.884Z,3.90
2022-07-26T04:52:03.220Z,3.75
2022-07-26T04:53:35.729Z,4.70
2022-07-26T04:55:10.451Z,5.10
2022-07-26T04:56:42.873Z,4.07
2022-07-26T04:58:15.181Z,4.30
2022-07-26T04:59:58.165Z,3.78
2022-07-26T05:01:40.067Z,4.13
2022-07-26T05:03:12.349Z,3.83
2022-07-26T05:04:44.821Z,4.40
2022-07-26T05:06:17.676Z,4.30
2022-07-26T05:07:54.819Z,4.32
2022-07-26T05:09:27.053Z,4.03
2022-07-26T05:10:59.591Z,4.13
2022-07-26T05:12:32.013Z,4.13
2022-07-26T05:14:04.983Z,3.72
2022-07-26T05:15:37.417Z,4.60
2022-07-26T05:17:10.439Z,4.03
2022-07-26T05:18:46.032Z,3.80
2022-07-26T05:20:21.608Z,4.68
2022-07-26T05:21:53.739Z,4.10
2022-07-26T05:23:25.876Z,4.57
2022-07-26T05:24:58.402Z,4.28
2022-07-26T05:26:31.068Z,4.13
2022-07-26T05:28:03.517Z,4.72
2022-07-26T05:29:35.748Z,4.20
2022-07-26T05:31:08.278Z,3.85
2022-07-26T05:32:40.576Z,4.25
2022-07-26T05:34:13.747Z,4.20
2022-07-26T05:35:45.912Z,4.15
2022-07-26T05:37:18.273Z,4.22
2022-07-26T05:38:50.465Z,4.03
2022-07-26T05:40:22.984Z,4.13
2022-07-26T05:41:55.322Z,4.07
2022-07-26T05:43:27.825Z,4.47
2022-07-26T05:45:14.086Z,4.45
2022-07-26T05:46:46.185Z,4.32
2022-07-26T05:48:18.543Z,3.92
2022-07-26T05:49:52.137Z,4.25
2022-07-26T05:51:24.320Z,3.95
2022-07-26T05:52:56.703Z,4.18
2022-07-26T05:54:28.980Z,4.25
2022-07-26T05:56:01.842Z,4.10
2022-07-26T05:57:34.011Z,4.05
2022-07-26T05:59:06.145Z,4.00
2022-07-26T06:00:38.342Z,4.03
2022-07-26T06:02:10.801Z,4.47
2022-07-26T06:03:43.651Z,4.18
2022-07-26T06:05:15.981Z,4.80
2022-07-26T06:06:48.192Z,4.53
2022-07-26T06:08:21.639Z,4.53
2022-07-26T06:09:53.847Z,4.97
2022-07-26T06:11:26.113Z,4.35
2022-07-26T06:12:59.708Z,4.80
2022-07-26T06:14:32.059Z,4.40
2022-07-26T06:16:04.756Z,4.70
2022-07-26T06:17:41.564Z,4.45
2022-07-26T06:19:14.025Z,4.43
2022-07-26T06:20:48.368Z,4.50
2022-07-26T06:22:20.527Z,4.75
2022-07-26T06:23:53.168Z,4.47
2022-07-26T06:25:26.493Z,4.57
2022-07-26T06:27:04.897Z,4.68
2022-07-26T06:28:39.462Z,4.82
2022-07-26T06:30:12.423Z,4.63
2022-07-26T06:31:44.764Z,4.57
2022-07-26T06:33:17.293Z,5.25
2022-07-26T06:34:49.413Z,4.80
2022-07-26T06:36:25.081Z,4.75
2022-07-26T06:38:00.029Z,4.70
2022-07-26T06:39:32.504Z,4.60
2022-07-26T06:41:05.316Z,5.47
2022-07-26T06:42:38.765Z,5.20
2022-07-26T06:44:11.321Z,4.82
2022-07-26T06:45:44.179Z,5.05
2022-07-26T06:47:16.414Z,4.63
2022-07-26T06:48:52.733Z,4.95
2022-07-26T06:50:25.886Z,4.97
2022-07-26T06:51:58.449Z,5.15
2022-07-26T06:53:30.777Z,4.97
2022-07-26T06:55:04.347Z,5.55
2022-07-26T06:56:36.557Z,5.13
2022-07-26T06:58:08.908Z,4.95
2022-07-26T06:59:41.220Z,4.65
2022-07-26T07:01:57.496Z,4.68
2022-07-26T07:03:06.053Z,4.68
2022-07-26T07:04:38.846Z,4.82
2022-07-26T07:06:11.088Z,4.95
2022-07-26T07:07:43.444Z,5.03
2022-07-26T07:09:15.791Z,4.50
2022-07-26T07:10:50.828Z,4.82
2022-07-26T07:12:23.337Z,4.82
2022-07-26T07:13:55.504Z,5.18
2022-07-26T07:15:27.684Z,5.50
2022-07-26T07:17:00.596Z,5.03
2022-07-26T07:18:32.841Z,4.90
2022-07-26T07:20:06.187Z,5.20
2022-07-26T07:21:39.453Z,4.45
2022-07-26T07:23:11.822Z,5.40
2022-07-26T07:24:44.352Z,5.03
2022-07-26T07:26:20.173Z,5.30
2022-07-26T07:27:52.717Z,5.30
2022-07-26T07:29:25.600Z,5.13
2022-07-26T07:31:01.449Z,4.68
2022-07-26T07:32:36.059Z,5.22
2022-07-26T07:34:08.725Z,5.50
2022-07-26T07:35:41.336Z,5.25
2022-07-26T07:37:17.512Z,5.07
2022-07-26T07:38:50.281Z,5.15
2022-07-26T07:40:24.006Z,5.35
2022-07-26T07:41:56.445Z,4.97
2022-07-26T07:43:28.742Z,5.00
2022-07-26T07:45:01.115Z,4.50
2022-07-26T07:46:33.817Z,5.25
2022-07-26T07:48:06.686Z,4.75
2022-07-26T07:49:38.920Z,5.57
2022-07-26T07:51:11.711Z,5.40
2022-07-26T07:52:43.986Z,5.50
2022-07-26T07:54:16.773Z,5.32
2022-07-26T07:55:50.719Z,6.22
2022-07-26T07:57:27.544Z,7.47
2022-07-26T07:59:01.927Z,6.05
2022-07-26T08:00:34.298Z,5.50
2022-07-26T08:02:07.398Z,5.97
2022-07-26T08:03:39.756Z,6.18
2022-07-26T08:05:15.182Z,5.47
2022-07-26T08:06:51.114Z,5.88
2022-07-26T08:08:23.846Z,5.68
2022-07-26T08:09:57.237Z,5.70
2022-07-26T08:11:30.004Z,5.85
2022-07-26T08:13:02.514Z,5.80
2022-07-26T08:14:34.687Z,6.05
2022-07-26T08:16:09.505Z,5.90
2022-07-26T08:17:42.147Z,5.65
2022-07-26T08:19:15.436Z,5.65
2022-07-26T08:20:48.377Z,6.57
2022-07-26T08:22:20.840Z,6.50
2022-07-26T08:23:54.625Z,6.28
2022-07-26T08:25:27.088Z,6.15
2022-07-26T08:26:59.559Z,6.22
2022-07-26T08:28:48.530Z,6.45
2022-07-26T08:30:21.072Z,5.93
2022-07-26T08:31:53.564Z,6.38
2022-07-26T08:33:26.027Z,6.28
2022-07-26T08:35:17.266Z,6.25
2022-07-26T08:37:15.307Z,6.25
2022-07-26T08:38:44.391Z,6.47
2022-07-26T08:40:16.653Z,6.60
2022-07-26T08:41:48.921Z,6.32
2022-07-26T08:43:21.387Z,6.60
2022-07-26T08:44:54.170Z,6.35
2022-07-26T08:46:28.020Z,6.70
2022-07-26T08:48:18.647Z,7.18
2022-07-26T08:49:51.210Z,7.47
2022-07-26T08:51:26.452Z,7.55
2022-07-26T08:53:04.115Z,7.57
2022-07-26T08:54:36.811Z,7.68
2022-07-26T08:56:09.256Z,7.63
2022-07-26T08:57:42.028Z,7.10
2022-07-26T08:59:20.877Z,7.75
2022-07-26T09:01:15.047Z,7.38
2022-07-26T09:02:48.733Z,6.82
2022-07-26T09:04:44.402Z,6.93
2022-07-26T09:06:28.130Z,8.18
2022-07-26T09:08:22.264Z,6.97
2022-07-26T09:10:05.381Z,7.10
2022-07-26T09:11:37.523Z,6.93
2022-07-26T09:13:09.874Z,6.85
2022-07-26T09:14:42.515Z,7.90
2022-07-26T09:16:15.192Z,6.70
2022-07-26T09:17:52.113Z,7.55
2022-07-26T09:19:25.745Z,7.18
2022-07-26T09:20:57.968Z,7.72
2022-07-26T09:22:30.666Z,7.03
2022-07-26T09:24:03.451Z,7.30
2022-07-26T09:25:43.696Z,7.25
2022-07-26T09:27:18.227Z,7.60
2022-07-26T09:29:12.855Z,7.55
2022-07-26T09:31:03.874Z,6.80
2022-07-26T09:32:36.909Z,7.55
2022-07-26T09:34:09.578Z,7.30
2022-07-26T09:35:50.746Z,6.72
2022-07-26T09:37:34.968Z,6.72
2022-07-26T09:39:07.391Z,6.50
2022-07-26T09:40:39.741Z,7.05
2022-07-26T09:42:28.690Z,7.13
2022-07-26T09:44:07.159Z,7.45
2022-07-26T09:45:39.516Z,6.43
2022-07-26T09:47:11.787Z,7.00
2022-07-26T09:50:37.101Z,6.88
2022-07-26T09:52:19.868Z,6.43
2022-07-26T09:53:52.184Z,6.90
2022-07-26T09:55:24.743Z,6.57
2022-07-26T09:58:16.766Z,6.45
2022-07-26T09:59:49.458Z,6.95
2022-07-26T10:01:21.761Z,6.75
2022-07-26T10:02:54.354Z,6.43
2022-07-26T10:04:27.299Z,6.88
2022-07-26T10:06:02.182Z,6.75
2022-07-26T10:07:34.908Z,6.78
2022-07-26T10:09:08.560Z,6.80
2022-07-26T10:11:03.246Z,6.28
2022-07-26T10:12:36.549Z,6.20
2022-07-26T10:14:34.307Z,6.43
2022-07-26T10:16:07.933Z,6.57
2022-07-26T10:17:42.577Z,6.40
2022-07-26T10:19:45.413Z,6.18
2022-07-26T10:21:31.952Z,7.15
2022-07-26T10:23:04.831Z,6.22
2022-07-26T10:24:41.277Z,6.63
2022-07-26T10:26:38.389Z,6.40
2022-07-26T10:28:26.268Z,5.57
2022-07-26T10:30:33.768Z,5.88
2022-07-26T10:32:09.881Z,6.13
2022-07-26T10:33:48.464Z,5.60
2022-07-26T10:35:44.576Z,6.00
2022-07-26T10:37:27.938Z,5.93
2022-07-26T10:39:06.534Z,6.55
2022-07-26T10:40:57.218Z,6.05
2022-07-26T10:42:44.760Z,5.95
2022-07-26T10:44:30.470Z,6.13
2022-07-26T10:46:20.326Z,5.63
2022-07-26T10:48:12.647Z,5.50
2022-07-26T10:49:58.592Z,5.72
2022-07-26T10:51:40.068Z,5.65
2022-07-26T10:53:18.962Z,6.20
2022-07-26T10:54:57.326Z,5.57
2022-07-26T10:56:33.362Z,6.13
2022-07-26T10:58:06.018Z,6.03
2022-07-26T10:59:55.254Z,6.30
2022-07-26T11:01:43.223Z,6.15
2022-07-26T11:03:16.321Z,5.82
2022-07-26T11:05:15.627Z,6.43
2022-07-26T11:06:48.651Z,5.65
2022-07-26T11:08:30.436Z,6.38
2022-07-26T11:10:02.787Z,6.28
2022-07-26T11:11:35.088Z,5.57
2022-07-26T11:13:20.635Z,5.80
2022-07-26T11:14:55.840Z,6.10
2022-07-26T11:16:28.066Z,6.32
2022-07-26T11:18:18.495Z,6.30
2022-07-26T11:19:52.228Z,6.07
2022-07-26T11:21:24.437Z,6.60
2022-07-26T11:22:56.722Z,6.85
2022-07-26T11:24:29.532Z,6.45
2022-07-26T11:26:10.549Z,6.20
2022-07-26T11:28:07.188Z,6.53
2022-07-26T11:29:41.587Z,6.80
2022-07-26T11:31:16.097Z,6.40
2022-07-26T11:32:54.330Z,6.72
2022-07-26T11:34:30.468Z,7.00
2022-07-26T11:36:04.977Z,6.93
2022-07-26T11:37:37.530Z,7.47
2022-07-26T11:39:35.353Z,7.25
2022-07-26T11:41:07.761Z,7.50
2022-07-26T11:42:40.085Z,8.13
2022-07-26T11:44:23.426Z,7.05
2022-07-26T11:45:55.691Z,7.70
2022-07-26T11:47:27.921Z,7.93
2022-07-26T11:49:01.037Z,7.90
2022-07-26T11:50:33.514Z,8.05
2022-07-26T11:52:05.970Z,7.30
2022-07-26T11:53:39.563Z,7.57
2022-07-26T11:55:12.484Z,7.53
2022-07-26T11:57:00.403Z,8.23
2022-07-26T11:58:33.296Z,7.82
2022-07-26T12:00:06.914Z,7.38
2022-07-26T12:01:40.285Z,8.05
2022-07-26T12:03:21.037Z,8.27
2022-07-26T12:05:20.169Z,8.10
2022-07-26T12:06:55.053Z,8.68
2022-07-26T12:08:46.989Z,8.10
2022-07-26T12:10:23.108Z,8.93
2022-07-26T12:11:55.746Z,8.73
2022-07-26T12:13:28.037Z,10.02
2022-07-26T12:15:13.564Z,10.60
2022-07-26T12:16:47.570Z,11.85
2022-07-26T12:18:31.337Z,12.00
2022-07-26T12:20:18.507Z,12.52
2022-07-26T12:22:12.674Z,12.27
2022-07-26T12:23:49.887Z,11.77
2022-07-26T12:25:29.660Z,12.38
2022-07-26T12:27:33.021Z,12.05
2022-07-26T12:29:24.666Z,13.20
2022-07-26T12:30:57.095Z,12.30
2022-07-26T12:32:39.356Z,12.57
2022-07-26T12:34:12.365Z,12.57
2022-07-26T12:35:44.715Z,12.68
2022-07-26T12:37:18.227Z,12.52
2022-07-26T12:38:52.514Z,12.32
2022-07-26T12:40:39.524Z,13.52
2022-07-26T12:42:33.115Z,13.07
2022-07-26T12:44:08.525Z,14.10
2022-07-26T12:45:41.796Z,13.63
2022-07-26T12:47:14.038Z,14.63
2022-07-26T12:48:47.014Z,14.27
2022-07-26T12:50:22.797Z,15.23
2022-07-26T12:51:55.148Z,15.50
2022-07-26T12:53:27.312Z,14.32
2022-07-26T12:55:01.181Z,15.93
2022-07-26T12:56:34.344Z,15.20
2022-07-26T12:58:06.732Z,14.25
2022-07-26T12:59:44.612Z,14.35
2022-07-26T13:01:17.267Z,13.90
2022-07-26T13:02:49.819Z,14.02
2022-07-26T13:04:22.517Z,12.57
2022-07-26T13:05:54.674Z,12.73
2022-07-26T13:07:27.158Z,12.20
2022-07-26T13:08:59.456Z,12.10
2022-07-26T13:10:34.047Z,11.30
2022-07-26T13:12:09.278Z,11.60
2022-07-26T13:13:41.912Z,10.80
2022-07-26T13:15:14.108Z,11.05
2022-07-26T13:16:46.612Z,10.50
2022-07-26T13:18:18.840Z,10.50
2022-07-26T13:19:51.116Z,10.45
2022-07-26T13:21:24.112Z,9.95
2022-07-26T13:22:56.465Z,10.02
2022-07-26T13:24:31.017Z,9.82
2022-07-26T13:26:09.102Z,9.10
2022-07-26T13:27:44.747Z,9.65
2022-07-26T13:29:18.125Z,9.60
2022-07-26T13:30:50.453Z,9.15
2022-07-26T13:32:22.659Z,8.93
2022-07-26T13:33:54.885Z,9.35
2022-07-26T13:35:27.263Z,9.10
2022-07-26T13:37:00.131Z,8.30
2022-07-26T13:38:39.189Z,8.18
2022-07-26T13:40:11.953Z,8.27
2022-07-26T13:41:45.443Z,8.10
2022-07-26T13:43:17.730Z,8.93
2022-07-26T13:44:50.308Z,8.77
2022-07-26T13:46:26.382Z,8.13
2022-07-26T13:48:00.016Z,7.90
2022-07-26T13:49:32.798Z,8.55
2022-07-26T13:51:05.687Z,8.40
2022-07-26T13:52:38.256Z,9.90
2022-07-26T13:54:13.082Z,9.20
2022-07-26T13:55:45.539Z,8.15
2022-07-26T13:57:17.716Z,8.45
2022-07-26T13:58:50.093Z,8.15
2022-07-26T14:00:22.845Z,8.15
2022-07-26T14:01:56.259Z,8.52
2022-07-26T14:03:32.179Z,8.65
2022-07-26T14:05:08.893Z,8.10
2022-07-26T14:06:41.671Z,8.52
2022-07-26T14:08:13.859Z,8.53
2022-07-26T14:09:46.353Z,7.85
2022-07-26T14:11:18.958Z,7.75
2022-07-26T14:12:52.625Z,7.80
2022-07-26T14:14:25.287Z,7.60
2022-07-26T14:15:57.665Z,7.53
2022-07-26T14:17:29.901Z,7.28
2022-07-26T14:19:03.417Z,6.47
2022-07-26T14:20:36.120Z,6.65
2022-07-26T14:22:08.632Z,6.60
2022-07-26T14:23:40.937Z,6.10
2022-07-26T14:25:13.464Z,6.05
2022-07-26T14:26:45.623Z,6.28
2022-07-26T14:28:19.993Z,5.70
2022-07-26T14:29:52.249Z,5.87
2022-07-26T14:31:24.956Z,5.93
2022-07-26T14:32:57.198Z,5.50
2022-07-26T14:34:29.424Z,5.65
2022-07-26T14:36:01.634Z,5.60
2022-07-26T14:37:44.121Z,6.17
2022-07-26T14:39:17.569Z,6.00
2022-07-26T14:40:49.957Z,5.77
2022-07-26T14:42:22.143Z,6.37
2022-07-26T14:43:55.785Z,5.78
2022-07-26T14:45:28.950Z,5.57
2022-07-26T14:47:01.375Z,5.43
2022-07-26T14:48:53.639Z,5.93
2022-07-26T14:50:26.224Z,6.30
2022-07-26T14:51:58.379Z,7.90
2022-07-26T14:53:31.019Z,6.17
2022-07-26T14:55:05.606Z,6.40
2022-07-26T14:56:38.158Z,6.25
2022-07-26T14:58:10.491Z,6.00
2022-07-26T14:59:42.811Z,6.00
2022-07-26T15:01:15.053Z,6.00
2022-07-26T15:02:49.127Z,6.00
2022-07-26T15:04:21.511Z,6.18
2022-07-26T15:05:53.664Z,5.77
2022-07-26T15:07:25.802Z,5.60
2022-07-26T15:08:58.258Z,6.70
2022-07-26T15:10:30.789Z,6.10
2022-07-26T15:12:03.188Z,6.03
2022-07-26T15:13:36.037Z,6.47
2022-07-26T15:15:10.650Z,6.68
2022-07-26T15:16:43.267Z,6.87
2022-07-26T15:18:15.540Z,6.68
2022-07-26T15:19:47.668Z,6.50
2022-07-26T15:21:20.104Z,7.23
2022-07-26T15:22:54.085Z,6.95
2022-07-26T15:24:27.180Z,5.53
2022-07-26T15:25:59.721Z,7.10
2022-07-26T15:27:32.208Z,7.40
2022-07-26T15:29:04.787Z,7.40
2022-07-26T15:30:37.687Z,7.20
2022-07-26T15:32:10.179Z,6.57
2022-07-26T15:33:43.050Z,6.97
2022-07-26T15:35:15.729Z,8.30
2022-07-26T15:36:47.899Z,7.70
2022-07-26T15:38:20.068Z,8.00
2022-07-26T15:39:53.089Z,8.27
2022-07-26T15:41:25.589Z,7.80
2022-07-26T15:42:57.837Z,8.00
2022-07-26T15:44:31.093Z,7.80
2022-07-26T15:46:03.622Z,8.40
2022-07-26T15:48:00.958Z,8.07
2022-07-26T15:49:31.855Z,8.23
2022-07-26T15:51:04.136Z,7.30
2022-07-26T15:52:40.960Z,7.80
2022-07-26T15:54:15.887Z,7.73
2022-07-26T15:55:48.317Z,8.07
2022-07-26T15:57:20.728Z,7.93
2022-07-26T15:58:53.264Z,7.60
2022-07-26T16:00:25.586Z,7.63
2022-07-26T16:01:58.239Z,7.70
2022-07-26T16:03:31.192Z,7.57
2022-07-26T16:05:06.093Z,7.93
2022-07-26T16:06:38.849Z,7.33
2022-07-26T16:08:11.039Z,7.63
2022-07-26T16:09:43.624Z,7.60
2022-07-26T16:11:16.180Z,5.03
2022-07-26T16:12:48.503Z,7.90
2022-07-26T16:14:20.956Z,7.57
2022-07-26T16:15:53.146Z,7.93
2022-07-26T16:17:25.615Z,7.53
2022-07-26T16:18:58.602Z,7.53
2022-07-26T16:20:31.716Z,7.50
2022-07-26T16:22:05.157Z,7.90
2022-07-26T16:23:37.763Z,7.90
2022-07-26T16:25:13.599Z,8.93
2022-07-26T16:26:47.713Z,8.40
2022-07-26T16:28:19.927Z,9.27
2022-07-26T16:29:52.685Z,8.47
2022-07-26T16:31:25.016Z,8.20
2022-07-26T16:32:57.404Z,8.67
2022-07-26T16:34:30.223Z,8.13
2022-07-26T16:36:06.333Z,7.70
2022-07-26T16:37:40.045Z,7.47
2022-07-26T16:39:12.775Z,7.50
2022-07-26T16:40:45.318Z,7.77
2022-07-26T16:42:17.921Z,8.47
2022-07-26T16:43:50.247Z,7.97
2022-07-26T16:45:22.581Z,8.00
2022-07-26T16:46:54.933Z,7.77
2022-07-26T16:48:27.573Z,8.13
2022-07-26T16:49:59.849Z,8.07
2022-07-26T16:51:32.059Z,8.90
2022-07-26T16:53:04.308Z,8.57
2022-07-26T16:54:36.976Z,8.37
2022-07-26T16:56:09.738Z,9.27
2022-07-26T16:57:43.316Z,9.10
2022-07-26T16:59:15.706Z,8.90
2022-07-26T17:00:48.756Z,8.20
2022-07-26T17:02:21.112Z,8.33
2022-07-26T17:03:53.445Z,8.60
2022-07-26T17:05:25.701Z,8.30
2022-07-26T17:07:23.389Z,8.03
2022-07-26T17:08:50.244Z,7.83
2022-07-26T17:10:22.602Z,8.20
2022-07-26T17:11:54.835Z,7.57
2022-07-26T17:13:27.295Z,8.23
2022-07-26T17:15:00.604Z,9.07
2022-07-26T17:16:33.224Z,8.13
2022-07-26T17:18:05.769Z,11.37
2022-07-26T17:19:38.241Z,9.30
2022-07-26T17:21:10.520Z,9.03
2022-07-26T17:22:42.831Z,11.30
2022-07-26T17:24:16.148Z,11.63
2022-07-26T17:25:48.487Z,13.57
2022-07-26T17:27:20.650Z,15.13
2022-07-26T17:28:52.971Z,13.60
2022-07-26T17:30:25.470Z,10.77
2022-07-26T17:31:57.876Z,10.17
2022-07-26T17:33:30.246Z,10.53
2022-07-26T17:35:02.422Z,9.70
2022-07-26T17:36:35.918Z,14.80
2022-07-26T17:38:09.729Z,15.33
2022-07-26T17:39:52.754Z,16.47
2022-07-26T17:41:32.829Z,11.57
2022-07-26T17:43:05.320Z,9.57
2022-07-26T17:44:40.286Z,10.30
2022-07-26T17:46:12.677Z,10.00
2022-07-26T17:47:44.973Z,9.83
2022-07-26T17:49:17.218Z,9.67
2022-07-26T17:50:49.636Z,9.87
2022-07-26T17:52:21.759Z,10.23
2022-07-26T17:53:53.912Z,10.47
2022-07-26T17:55:26.068Z,10.77
2022-07-26T17:56:58.611Z,13.73
2022-07-26T17:58:31.513Z,15.20
2022-07-26T18:00:07.125Z,13.07
2022-07-26T18:01:39.344Z,12.43
2022-07-26T18:03:25.233Z,12.93
2022-07-26T18:04:57.493Z,13.77
2022-07-26T18:06:29.723Z,14.37
2022-07-26T18:08:02.215Z,16.43
2022-07-26T18:09:35.073Z,16.33
2022-07-26T18:11:09.102Z,15.67
2022-07-26T18:12:41.678Z,21.03
2022-07-26T18:14:13.867Z,21.53
2022-07-26T18:15:46.293Z,23.37
2022-07-26T18:17:18.445Z,21.87
2022-07-26T18:18:50.573Z,18.10
2022-07-26T18:20:24.243Z,17.73
2022-07-26T18:21:56.829Z,19.00
2022-07-26T18:23:29.033Z,15.93
2022-07-26T18:25:01.868Z,16.17
2022-07-26T18:26:34.377Z,12.17
2022-07-26T18:28:08.018Z,11.90
2022-07-26T18:29:40.390Z,11.67
2022-07-26T18:31:13.190Z,12.40
2022-07-26T18:32:45.488Z,13.63
2022-07-26T18:34:17.894Z,14.33
2022-07-26T18:35:50.057Z,13.30
2022-07-26T18:37:22.548Z,12.87
2022-07-26T18:38:54.743Z,13.17
2022-07-26T18:40:27.396Z,13.00
2022-07-26T18:42:00.149Z,15.23
2022-07-26T18:43:32.620Z,14.20
2022-07-26T18:45:07.235Z,15.33
2022-07-26T18:46:39.749Z,15.27
2022-07-26T18:48:12.148Z,14.70
2022-07-26T18:49:46.605Z,14.77
2022-07-26T18:51:19.647Z,15.23
2022-07-26T18:52:52.244Z,14.97
2022-07-26T18:54:24.909Z,15.13
2022-07-26T18:55:57.481Z,15.17
2022-07-26T18:57:29.596Z,13.97
2022-07-26T18:59:02.005Z,13.50
2022-07-26T19:00:34.331Z,14.73
2022-07-26T19:02:06.503Z,15.60
2022-07-26T19:03:39.011Z,16.23
2022-07-26T19:05:12.368Z,15.13
2022-07-26T19:06:44.489Z,16.33
2022-07-26T19:08:16.732Z,16.67
2022-07-26T19:09:49.286Z,16.77
2022-07-26T19:11:21.678Z,17.53
2022-07-26T19:12:54.657Z,17.20
2022-07-26T19:14:26.905Z,16.37
2022-07-26T19:15:59.359Z,17.23
2022-07-26T19:17:34.014Z,17.13
2022-07-26T19:19:06.153Z,17.33
2022-07-26T19:20:38.436Z,18.47
2022-07-26T19:22:10.605Z,18.27
2022-07-26T19:23:43.288Z,18.83
2022-07-26T19:25:16.246Z,24.83
2022-07-26T19:26:48.396Z,39.40
2022-07-26T19:28:20.708Z,45.27
2022-07-26T19:29:53.156Z,42.97
2022-07-26T19:31:26.108Z,37.73
2022-07-26T19:32:58.389Z,30.73
2022-07-26T19:34:30.777Z,25.33
2022-07-26T19:36:03.293Z,22.70
2022-07-26T19:37:35.835Z,21.80
2022-07-26T19:39:08.420Z,21.90
2022-07-26T19:40:40.816Z,20.70
2022-07-26T19:42:13.372Z,21.93
2022-07-26T19:43:45.590Z,21.43
2022-07-26T19:45:17.867Z,21.33
2022-07-26T19:46:53.012Z,20.80
2022-07-26T19:48:28.352Z,20.83
2022-07-26T19:50:00.594Z,22.23
2022-07-26T19:51:33.226Z,22.57
2022-07-26T19:53:05.500Z,22.67
2022-07-26T19:54:38.227Z,34.77
2022-07-26T19:56:10.816Z,32.40
2022-07-26T19:57:43.055Z,27.70
2022-07-26T19:59:21.005Z,24.80
2022-07-26T20:00:55.619Z,26.10
2022-07-26T20:02:28.022Z,24.63
2022-07-26T20:04:02.288Z,22.40
2022-07-26T20:05:34.847Z,23.23
2022-07-26T20:07:07.727Z,21.33
2022-07-26T20:08:40.143Z,20.63
2022-07-26T20:10:12.393Z,20.43
2022-07-26T20:11:50.647Z,20.27
2022-07-26T20:13:23.426Z,20.53
2022-07-26T20:14:55.946Z,20.33
2022-07-26T20:16:28.728Z,21.77
2022-07-26T20:18:00.907Z,22.07
2022-07-26T20:19:33.646Z,20.60
2022-07-26T20:21:06.039Z,22.43
2022-07-26T20:22:38.353Z,23.53
2022-07-26T20:24:12.144Z,22.33
2022-07-26T20:25:44.715Z,23.87
2022-07-26T20:27:16.860Z,21.77
2022-07-26T20:28:50.658Z,22.87
2022-07-26T20:30:22.846Z,23.13
2022-07-26T20:31:55.240Z,21.77
2022-07-26T20:33:27.604Z,22.57
2022-07-26T20:34:59.829Z,22.30
2022-07-26T20:36:32.240Z,23.03
2022-07-26T20:38:04.873Z,20.97
2022-07-26T20:39:38.276Z,22.00
2022-07-26T20:41:10.439Z,21.80
2022-07-26T20:42:44.349Z,20.77
2022-07-26T20:44:19.742Z,22.00
2022-07-26T20:45:54.449Z,21.30
2022-07-26T20:47:26.730Z,22.03
2022-07-26T20:48:59.132Z,21.33
2022-07-26T20:50:31.534Z,21.07
2022-07-26T20:52:05.013Z,21.13
2022-07-26T20:53:37.328Z,21.13